createdAt,value
2016-10-13T07:20:22.218Z,92.1
2016-10-13T07:21:22.211Z,91.72
2016-10-13T07:22:22.194Z,91.72
2016-10-13T07:23:22.186Z,91.72
2016-10-13T07:24:22.158Z,91.91
2016-10-13T07:25:22.135Z,91.72
2016-10-13T07:26:22.142Z,91.91
2016-10-13T07:27:22.115Z,91.91
2016-10-13T07:28:22.094Z,92.1
2016-10-13T07:29:22.090Z,91.53
2016-10-13T07:30:22.065Z,91.62
2016-10-13T07:31:22.065Z,91.34
2016-10-13T07:32:22.050Z,91.53
2016-10-13T07:33:22.013Z,91.67
2016-10-13T07:34:22.013Z,91.67
2016-10-13T07:35:21.998Z,91.29
2016-10-13T07:36:21.983Z,91.48
2016-10-13T07:37:21.969Z,91.53
2016-10-13T07:38:21.953Z,91.34
2016-10-13T07:39:21.940Z,91.34
2016-10-13T07:40:21.910Z,91.48
2016-10-13T07:41:21.896Z,91.39
2016-10-13T07:42:21.886Z,91.2
2016-10-13T07:43:21.872Z,91.1
2016-10-13T07:44:21.851Z,91.39
2016-10-13T07:45:21.862Z,91.1
2016-10-13T07:46:21.828Z,91.2
2016-10-13T07:47:21.809Z,91.1
2016-10-13T07:48:21.802Z,91.2
2016-10-13T07:49:21.786Z,91.39
2016-10-13T07:50:21.767Z,91.01
2016-10-13T07:51:21.771Z,91.01
2016-10-13T07:52:21.744Z,90.72
2016-10-13T07:53:21.725Z,90.91
2016-10-13T07:54:21.732Z,90.91
2016-10-13T07:55:21.705Z,91.01
2016-10-13T07:56:22.018Z,91.01
2016-10-13T07:57:21.668Z,91.01
2016-10-13T07:58:21.675Z,91.01
2016-10-13T07:59:21.654Z,90.82
2016-10-13T08:00:21.641Z,90.91
2016-10-13T08:01:21.619Z,90.91
2016-10-13T08:02:21.600Z,90.72
2016-10-13T08:03:21.590Z,90.53
2016-10-13T08:04:21.577Z,90.53
2016-10-13T08:05:21.571Z,90.72
2016-10-13T08:06:21.563Z,90.72
2016-10-13T08:07:21.534Z,90.72
2016-10-13T08:08:21.520Z,90.34
2016-10-13T08:09:21.518Z,90.34
2016-10-13T08:10:21.497Z,90.16
2016-10-13T08:11:21.484Z,90.25
2016-10-13T08:12:21.461Z,90.44
2016-10-13T08:13:21.460Z,90.25
2016-10-13T08:14:21.430Z,90.16
2016-10-13T08:15:21.421Z,89.59
2016-10-13T08:16:21.401Z,89.69
2016-10-13T08:17:21.400Z,90.16
2016-10-13T08:18:21.365Z,89.73
2016-10-13T08:19:21.358Z,90.48
2016-10-13T08:20:21.356Z,89.63
2016-10-13T08:21:21.342Z,89.73
2016-10-13T08:22:21.326Z,89.73
2016-10-13T08:23:21.313Z,90.01
2016-10-13T08:24:21.284Z,90.06
2016-10-13T08:25:21.284Z,89.96
2016-10-13T08:26:21.264Z,89.96
2016-10-13T08:27:21.241Z,89.77
2016-10-13T08:28:21.229Z,89.87
2016-10-13T08:29:21.214Z,89.49
2016-10-13T08:30:21.209Z,89.49
2016-10-13T08:31:21.195Z,89.77
2016-10-13T08:32:21.268Z,89.58
2016-10-13T08:33:21.160Z,89.63
2016-10-13T08:34:21.162Z,89.25
2016-10-13T08:35:21.135Z,89.49
2016-10-13T08:36:21.131Z,89.49
2016-10-13T08:37:21.115Z,89.63
2016-10-13T08:38:21.110Z,89.72
2016-10-13T08:39:21.096Z,89.06
2016-10-13T08:40:21.065Z,89.25
2016-10-13T08:41:21.053Z,89.06
2016-10-13T08:42:21.045Z,88.78
2016-10-13T08:43:21.040Z,88.92
2016-10-13T08:44:21.033Z,88.73
2016-10-13T08:45:21.007Z,88.82
2016-10-13T08:46:20.989Z,88.92
2016-10-13T08:47:20.976Z,88.54
2016-10-13T08:48:20.965Z,88.12
2016-10-13T08:49:20.949Z,88.02
2016-10-13T08:50:20.939Z,88.12
2016-10-13T08:51:20.927Z,88.07
2016-10-13T08:52:20.927Z,88.07
2016-10-13T08:53:20.913Z,88.35
2016-10-13T08:54:20.887Z,88.21
2016-10-13T08:55:20.896Z,88.02
2016-10-13T08:56:20.862Z,87.93
2016-10-13T08:57:20.865Z,87.84
2016-10-13T08:58:20.850Z,87.93
2016-10-13T08:59:20.845Z,88.21
2016-10-13T09:00:20.831Z,87.84
2016-10-13T09:01:20.803Z,88.02
2016-10-13T09:02:20.805Z,87.84
2016-10-13T09:03:20.783Z,88.02
2016-10-13T09:04:20.778Z,88.02
2016-10-13T09:05:20.743Z,87.59
2016-10-13T09:06:20.749Z,87.5
2016-10-13T09:07:20.722Z,87.78
2016-10-13T09:08:20.718Z,87.4
2016-10-13T09:09:20.688Z,87.55
2016-10-13T09:10:20.675Z,87.46
2016-10-13T09:11:20.670Z,87.27
2016-10-13T09:12:20.649Z,87.55
2016-10-13T09:13:20.649Z,87.17
2016-10-13T09:14:20.638Z,87.46
2016-10-13T09:15:20.615Z,87.78
2016-10-13T09:16:20.608Z,87.12
2016-10-13T09:17:20.600Z,87.69
2016-10-13T09:18:20.587Z,87.59
2016-10-13T09:19:20.558Z,87.64
2016-10-13T09:20:20.539Z,87.64
2016-10-13T09:21:20.532Z,87.97
2016-10-13T09:22:20.533Z,87.21
2016-10-13T09:23:20.509Z,87.4
2016-10-13T09:24:20.486Z,87.16
2016-10-13T09:25:20.483Z,86.97
2016-10-13T09:26:20.469Z,86.74
2016-10-13T09:27:20.470Z,86.74
2016-10-13T09:28:20.444Z,86.31
2016-10-13T09:29:20.446Z,86.69
2016-10-13T09:30:20.413Z,86.69
2016-10-13T09:31:20.399Z,86.93
2016-10-13T09:32:20.394Z,86.74
2016-10-13T09:33:20.390Z,86.64
2016-10-13T09:34:20.375Z,86.45
2016-10-13T09:35:20.371Z,86.74
2016-10-13T09:36:20.339Z,86.64
2016-10-13T09:37:20.340Z,86.87
2016-10-13T09:38:20.334Z,86.4
2016-10-13T09:39:20.302Z,87.2
2016-10-13T09:40:20.290Z,86.63
2016-10-13T09:41:20.299Z,86.54
2016-10-13T09:42:20.278Z,86.3
2016-10-13T09:43:20.275Z,86.4
2016-10-13T09:44:20.250Z,86.49
2016-10-13T09:45:20.245Z,86.4
2016-10-13T09:46:20.226Z,86.4
2016-10-13T09:47:20.221Z,86.4
2016-10-13T09:48:20.239Z,86.07
2016-10-13T09:49:20.206Z,86.02
2016-10-13T09:50:20.172Z,86.35
2016-10-13T09:51:20.183Z,85.83
2016-10-13T09:52:20.150Z,86.3
2016-10-13T09:53:20.140Z,85.78
2016-10-13T09:54:20.150Z,86.07
2016-10-13T09:55:20.132Z,85.83
2016-10-13T09:56:20.128Z,85.78
2016-10-13T09:57:20.097Z,85.35
2016-10-13T09:58:20.085Z,85.59
2016-10-13T09:59:20.096Z,85.55
2016-10-13T10:00:20.071Z,85.55
2016-10-13T10:01:20.059Z,85.68
2016-10-13T10:02:20.050Z,85.68
2016-10-13T10:03:20.037Z,85.49
2016-10-13T10:04:20.026Z,85.82
2016-10-13T10:05:20.015Z,85.49
2016-10-13T10:06:19.999Z,85.63
2016-10-13T10:07:20.008Z,85.44
2016-10-13T10:08:20.000Z,85.53
2016-10-13T10:09:19.986Z,85.25
2016-10-13T10:10:19.976Z,85.53
2016-10-13T10:11:19.966Z,85.3
2016-10-13T10:12:19.947Z,85.49
2016-10-13T10:13:19.924Z,85.11
2016-10-13T10:14:19.927Z,85.16
2016-10-13T10:15:19.915Z,85.58
2016-10-13T10:16:19.912Z,85.3
2016-10-13T10:17:19.902Z,85.3
2016-10-13T10:18:19.872Z,85.58
2016-10-13T10:19:19.865Z,85.35
2016-10-13T10:20:19.862Z,85.25
2016-10-13T10:21:19.838Z,84.87
2016-10-13T10:22:19.840Z,85.21
2016-10-13T10:23:19.827Z,85.35
2016-10-13T10:24:19.827Z,85.06
2016-10-13T10:25:19.803Z,85.25
2016-10-13T10:26:19.790Z,84.97
2016-10-13T10:27:19.789Z,84.64
2016-10-13T10:28:19.784Z,85.3
2016-10-13T10:29:19.767Z,84.83
2016-10-13T10:30:19.763Z,84.74
2016-10-13T10:31:19.729Z,84.92
2016-10-13T10:32:19.728Z,84.83
2016-10-13T10:33:19.728Z,84.98
2016-10-13T10:34:19.719Z,84.69
2016-10-13T10:35:19.693Z,85.13
2016-10-13T10:36:19.696Z,85.26
2016-10-13T10:37:19.684Z,85.17
2016-10-13T10:38:19.650Z,85.4
2016-10-13T10:39:19.641Z,85.3
2016-10-13T10:40:19.648Z,85.3
2016-10-13T10:41:19.638Z,85.3
2016-10-13T10:42:19.950Z,85.02
2016-10-13T10:43:19.610Z,85.35
2016-10-13T10:44:19.599Z,85.16
2016-10-13T10:45:19.593Z,85.25
2016-10-13T10:46:19.564Z,85.16
2016-10-13T10:47:19.550Z,85.3
2016-10-13T10:48:19.560Z,85.25
2016-10-13T10:49:19.535Z,85.16
2016-10-13T10:50:19.537Z,85.35
2016-10-13T10:51:19.526Z,84.78
2016-10-13T10:52:19.514Z,85.22
2016-10-13T10:53:19.483Z,85.13
2016-10-13T10:54:19.496Z,85.13
2016-10-13T10:55:19.480Z,85.22
2016-10-13T10:56:19.775Z,85.22
2016-10-13T10:57:19.442Z,85.13
2016-10-13T10:58:19.430Z,84.94
2016-10-13T10:59:19.430Z,85.5
2016-10-13T11:00:19.411Z,85.5
2016-10-13T11:01:19.402Z,85.5
2016-10-13T11:02:19.373Z,85.22
2016-10-13T11:03:19.363Z,85.45
2016-10-13T11:04:19.364Z,85.64
2016-10-13T11:05:19.359Z,85.36
2016-10-13T11:06:19.326Z,85.4
2016-10-13T11:07:19.328Z,85.4
2016-10-13T11:08:19.326Z,85.07
2016-10-13T11:09:19.306Z,85.22
2016-10-13T11:10:19.277Z,85.36
2016-10-13T11:11:19.288Z,85.65
2016-10-13T11:12:19.254Z,85.5
2016-10-13T11:13:19.263Z,85.5
2016-10-13T11:14:19.238Z,85.41
2016-10-13T11:15:19.218Z,85.5
2016-10-13T11:16:19.227Z,85.31
2016-10-13T11:17:19.212Z,85.69
2016-10-13T11:18:19.202Z,85.65
2016-10-13T11:19:19.187Z,85.27
2016-10-13T11:20:19.177Z,85.17
2016-10-13T11:21:19.151Z,86.12
2016-10-13T11:22:19.143Z,85.31
2016-10-13T11:23:19.141Z,85.5
2016-10-13T11:24:19.111Z,85.27
2016-10-13T11:25:19.108Z,85.46
2016-10-13T11:26:19.082Z,85.17
2016-10-13T11:27:19.088Z,84.9
2016-10-13T11:28:19.062Z,85.33
2016-10-13T11:29:19.056Z,85.42
2016-10-13T11:30:19.049Z,85.33
2016-10-13T11:31:19.033Z,85.61
2016-10-13T11:32:19.002Z,86.13
2016-10-13T11:33:18.990Z,86.32
2016-10-13T11:34:18.996Z,86.32
2016-10-13T11:35:18.983Z,86.47
2016-10-13T11:36:18.955Z,86.41
2016-10-13T11:37:18.956Z,86.79
2016-10-13T11:38:18.921Z,87.17
2016-10-13T11:39:18.909Z,87.27
2016-10-13T11:40:18.909Z,86.7
2016-10-13T11:41:18.889Z,87.04
2016-10-13T11:42:18.883Z,87.6
2016-10-13T11:43:18.853Z,87.51
2016-10-13T11:44:18.840Z,87.6
2016-10-13T11:45:18.846Z,87.98
2016-10-13T11:46:18.817Z,87.51
2016-10-13T11:47:18.797Z,88.17
2016-10-13T11:48:18.789Z,88.36
2016-10-13T11:49:18.764Z,88.55
2016-10-13T11:50:18.758Z,88.83
2016-10-13T11:51:18.745Z,88.64
2016-10-13T11:52:18.743Z,88.41
2016-10-13T11:53:18.721Z,88.88
2016-10-13T11:54:18.691Z,89.07
2016-10-13T11:55:18.692Z,89.36
2016-10-13T11:56:18.677Z,89.54
2016-10-13T11:57:18.950Z,89.83
2016-10-13T11:58:18.632Z,89.92
2016-10-13T11:59:18.946Z,89.83
2016-10-13T12:00:18.603Z,90.2
2016-10-13T12:01:18.596Z,90.11
2016-10-13T12:02:18.579Z,90.2
2016-10-13T12:03:18.566Z,90.49
2016-10-13T12:04:18.553Z,90.86
2016-10-13T12:05:18.537Z,90.77
2016-10-13T12:06:18.538Z,90.77
2016-10-13T12:07:18.525Z,91.24
2016-10-13T12:08:18.486Z,91.34
2016-10-13T12:09:18.480Z,91.53
2016-10-13T12:10:18.479Z,91.24
2016-10-13T12:11:18.454Z,91.72
2016-10-13T12:12:18.445Z,91.67
2016-10-13T12:13:18.419Z,91.86
2016-10-13T12:14:18.405Z,92.1
2016-10-13T12:15:18.402Z,91.62
2016-10-13T12:16:18.387Z,92.14
2016-10-13T12:17:18.362Z,92.38
2016-10-13T12:18:18.365Z,92.38
2016-10-13T12:19:18.337Z,92.24
2016-10-13T12:20:18.323Z,92.29
2016-10-13T12:21:18.308Z,92.24
2016-10-13T12:22:18.291Z,92.8
2016-10-13T12:23:18.292Z,92.8
2016-10-13T12:24:18.279Z,92.85
2016-10-13T12:25:18.257Z,93.42
2016-10-13T12:26:18.250Z,93.32
2016-10-13T12:27:18.228Z,93.37
2016-10-13T12:28:18.207Z,93.56
2016-10-13T12:29:18.193Z,93.47
2016-10-13T12:30:18.185Z,93.47
2016-10-13T12:31:18.178Z,93.47
2016-10-13T12:32:18.161Z,93.94
2016-10-13T12:33:18.148Z,93.89
2016-10-13T12:34:18.126Z,93.8
2016-10-13T12:35:18.109Z,94.03
2016-10-13T12:36:18.104Z,94.6
2016-10-13T12:37:18.074Z,94.7
2016-10-13T12:38:18.068Z,94.51
2016-10-13T12:39:18.039Z,94.7
2016-10-13T12:40:18.035Z,95.07
2016-10-13T12:41:18.024Z,94.89
2016-10-13T12:42:18.016Z,95.17
2016-10-13T12:43:17.988Z,95.36
2016-10-13T12:44:17.972Z,95.36
2016-10-13T12:45:17.966Z,94.98
2016-10-13T12:46:17.964Z,95.59
2016-10-13T12:47:17.933Z,95.69
2016-10-13T12:48:17.931Z,96.07
2016-10-13T12:49:17.908Z,96.07
2016-10-13T12:50:17.902Z,96.07
2016-10-13T12:51:17.868Z,96.26
2016-10-13T12:52:17.859Z,96.35
2016-10-13T12:53:17.841Z,96.35
2016-10-13T12:54:17.839Z,96.73
2016-10-13T12:55:17.831Z,96.83
2016-10-13T12:56:17.805Z,97.01
2016-10-13T12:57:17.782Z,96.92
2016-10-13T12:58:17.780Z,96.92
2016-10-13T12:59:17.773Z,96.87
2016-10-13T13:00:17.751Z,96.78
2016-10-13T13:01:17.744Z,97.15
2016-10-13T13:02:17.715Z,97.15
2016-10-13T13:03:17.706Z,96.96
2016-10-13T13:04:17.684Z,97.53
2016-10-13T13:05:17.666Z,97.63
2016-10-13T13:06:17.661Z,97.44
2016-10-13T13:07:17.652Z,97.81
2016-10-13T13:08:17.625Z,98.19
2016-10-13T13:09:17.602Z,98
2016-10-13T13:10:17.597Z,98
2016-10-13T13:11:17.590Z,97.72
2016-10-13T13:12:17.575Z,98
2016-10-13T13:13:17.560Z,98
2016-10-13T13:14:17.539Z,98.28
2016-10-13T13:15:17.524Z,98.47
2016-10-13T13:16:17.504Z,98.47
2016-10-13T13:17:17.485Z,98.28
2016-10-13T13:18:17.469Z,98.66
2016-10-13T13:19:17.448Z,98.76
2016-10-13T13:20:17.452Z,98.66
2016-10-13T13:21:17.424Z,99.04
2016-10-13T13:22:17.402Z,98.85
2016-10-13T13:23:17.387Z,98.85
2016-10-13T13:24:17.392Z,98.9
2016-10-13T13:25:17.368Z,99.18
2016-10-13T13:26:17.346Z,98.99
2016-10-13T13:27:17.338Z,99.23
2016-10-13T13:28:17.315Z,99.61
2016-10-13T13:29:17.306Z,99.33
2016-10-13T13:30:17.291Z,99.52
2016-10-13T13:31:17.260Z,99.8
2016-10-13T13:32:17.257Z,99.89
2016-10-13T13:33:17.235Z,99.71
2016-10-13T13:34:17.228Z,99.99
2016-10-13T13:35:17.213Z,99.99
2016-10-13T13:36:17.188Z,99.99
2016-10-13T13:37:17.173Z,99.99
2016-10-13T13:38:17.175Z,99.99
2016-10-13T13:39:17.142Z,99.99
2016-10-13T13:40:17.127Z,99.99
2016-10-13T13:41:17.119Z,99.99
2016-10-13T13:42:17.111Z,99.99
2016-10-13T13:43:17.095Z,99.99
2016-10-13T13:44:17.075Z,99.99
2016-10-13T13:45:17.064Z,99.99
2016-10-13T13:46:17.030Z,99.99
2016-10-13T13:47:17.028Z,99.99
2016-10-13T13:48:17.019Z,99.99
2016-10-13T13:49:17.004Z,99.99
2016-10-13T13:50:16.973Z,99.99
2016-10-13T13:51:16.964Z,99.99
2016-10-13T13:52:17.137Z,99.99
2016-10-13T13:53:16.928Z,99.99
2016-10-13T13:54:16.912Z,99.99
2016-10-13T13:55:16.909Z,99.99
2016-10-13T13:56:16.895Z,99.99
2016-10-13T13:57:16.880Z,99.99
2016-10-13T13:58:16.858Z,99.99
2016-10-13T13:59:16.849Z,99.99
2016-10-13T14:00:16.825Z,99.99
2016-10-13T14:01:16.817Z,99.99
2016-10-13T14:02:16.788Z,99.99
2016-10-13T14:03:16.786Z,99.99
2016-10-13T14:04:16.750Z,99.99
2016-10-13T14:05:16.733Z,99.99
2016-10-13T14:06:16.730Z,99.99
2016-10-13T14:07:16.715Z,99.99
2016-10-13T14:08:16.687Z,99.99
2016-10-13T14:09:16.691Z,99.99
2016-10-13T14:10:16.675Z,99.99
2016-10-13T14:11:16.646Z,99.99
2016-10-13T14:12:16.642Z,99.99
2016-10-13T14:13:16.622Z,99.99
2016-10-13T14:14:16.600Z,99.99
2016-10-13T14:15:16.577Z,99.99
2016-10-13T14:16:16.567Z,99.99
2016-10-13T14:17:16.558Z,99.99
2016-10-13T14:18:16.858Z,99.99
2016-10-13T14:19:16.532Z,99.99
2016-10-13T14:20:16.510Z,99.99
2016-10-13T14:21:16.484Z,99.99
2016-10-13T14:22:16.482Z,99.99
2016-10-13T14:23:16.456Z,99.99
2016-10-13T14:24:16.443Z,99.99
2016-10-13T14:25:16.430Z,99.99
2016-10-13T14:26:16.420Z,99.99
2016-10-13T14:27:16.408Z,99.99
2016-10-13T14:28:16.380Z,99.99
2016-10-13T14:29:16.366Z,99.99
2016-10-13T14:30:16.359Z,99.99
2016-10-13T14:31:16.328Z,99.99
2016-10-13T14:32:16.338Z,99.99
2016-10-13T14:33:16.303Z,99.99
2016-10-13T14:34:16.301Z,99.99
2016-10-13T14:35:16.265Z,99.99
2016-10-13T14:36:16.271Z,99.99
2016-10-13T14:37:16.241Z,99.99
2016-10-13T14:38:16.318Z,99.99
2016-10-13T14:39:16.209Z,99.99
2016-10-13T14:40:16.208Z,99.99
2016-10-13T14:41:16.176Z,99.99
2016-10-13T14:42:16.170Z,99.99
2016-10-13T14:43:16.160Z,99.99
2016-10-13T14:44:16.126Z,99.99
2016-10-13T14:45:16.110Z,99.99
2016-10-13T14:46:16.132Z,99.99
2016-10-13T14:47:16.104Z,99.99
2016-10-13T14:48:16.070Z,99.99
2016-10-13T14:49:16.051Z,99.99
2016-10-13T14:50:16.056Z,99.99
2016-10-13T14:51:16.028Z,99.99
2016-10-13T14:52:16.026Z,99.99
2016-10-13T14:53:16.009Z,99.99
2016-10-13T14:54:15.976Z,99.99
2016-10-13T14:55:15.981Z,99.99
2016-10-13T14:56:15.944Z,99.99
2016-10-13T14:57:15.937Z,99.99
2016-10-13T14:58:15.924Z,99.99
2016-10-13T14:59:15.899Z,99.99
2016-10-13T15:00:15.890Z,99.99
2016-10-13T15:01:15.870Z,99.99
2016-10-13T15:02:15.875Z,99.99
2016-10-13T15:03:15.844Z,99.99
2016-10-13T15:04:15.836Z,99.99
2016-10-13T15:05:15.821Z,99.99
2016-10-13T15:06:15.813Z,99.99
2016-10-13T15:07:15.777Z,99.99
2016-10-13T15:08:15.781Z,99.99
2016-10-13T15:09:15.766Z,99.99
2016-10-13T15:10:15.737Z,99.99
2016-10-13T15:11:15.723Z,99.99
2016-10-13T15:12:15.715Z,99.99
2016-10-13T15:13:15.705Z,99.99
2016-10-13T15:14:15.685Z,99.99
2016-10-13T15:15:15.669Z,99.99
2016-10-13T15:16:15.641Z,99.99
2016-10-13T15:17:15.633Z,99.99
2016-10-13T15:18:15.631Z,99.99
2016-10-13T15:19:15.596Z,99.99
2016-10-13T15:20:15.594Z,99.99
2016-10-13T15:21:15.580Z,99.99
2016-10-13T15:22:15.564Z,99.99
2016-10-13T15:23:15.535Z,99.99
2016-10-13T15:24:15.519Z,99.99
2016-10-13T15:25:15.524Z,99.99
2016-10-13T15:26:15.496Z,99.99
2016-10-13T15:27:15.475Z,99.99
2016-10-13T15:28:15.473Z,99.99
2016-10-13T15:29:15.444Z,99.99
2016-10-13T15:30:15.430Z,99.99
2016-10-13T15:31:15.421Z,99.99
2016-10-13T15:32:15.421Z,99.99
2016-10-13T15:33:15.384Z,99.99
2016-10-13T15:34:15.441Z,99.99
2016-10-13T15:35:15.435Z,99.99
2016-10-13T15:36:15.359Z,99.99
2016-10-13T15:37:15.337Z,99.99
2016-10-13T15:38:15.317Z,99.99
2016-10-13T15:39:15.299Z,99.99
2016-10-13T15:40:15.278Z,99.99
2016-10-13T15:41:15.261Z,99.99
2016-10-13T15:42:15.267Z,99.99
2016-10-13T15:43:15.239Z,99.99
2016-10-13T15:44:15.221Z,99.99
2016-10-13T15:45:15.223Z,99.99
2016-10-13T15:46:15.199Z,99.99
2016-10-13T15:47:15.170Z,99.99
2016-10-13T15:48:15.173Z,99.99
2016-10-13T15:49:15.162Z,99.99
2016-10-13T15:50:15.147Z,99.99
2016-10-13T15:51:15.117Z,99.99
2016-10-13T15:52:15.109Z,99.99
2016-10-13T15:53:15.094Z,99.99
2016-10-13T15:54:15.072Z,99.99
2016-10-13T15:55:15.064Z,99.99
2016-10-13T15:56:15.044Z,99.99
2016-10-13T15:57:15.028Z,99.99
2016-10-13T15:58:15.018Z,99.99
2016-10-13T15:59:14.996Z,99.99
2016-10-13T16:00:15.001Z,99.99
2016-10-13T16:01:14.973Z,99.99
2016-10-13T16:02:14.958Z,99.99
2016-10-13T16:03:14.944Z,99.99
2016-10-13T16:04:15.124Z,99.99
2016-10-13T16:05:14.906Z,99.99
2016-10-13T16:06:14.884Z,99.99
2016-10-13T16:07:14.883Z,99.99
2016-10-13T16:08:14.868Z,99.99
2016-10-13T16:09:14.845Z,99.99
2016-10-13T16:10:14.837Z,99.99
2016-10-13T16:11:14.821Z,99.99
2016-10-13T16:12:14.793Z,99.99
2016-10-13T16:13:14.786Z,99.99
2016-10-13T16:14:14.760Z,99.99
2016-10-13T16:15:14.769Z,99.99
2016-10-13T16:16:14.757Z,99.99
2016-10-13T16:17:14.717Z,99.99
2016-10-13T16:18:14.702Z,99.99
2016-10-13T16:19:14.706Z,99.99
2016-10-13T16:20:14.683Z,99.99
2016-10-13T16:21:14.660Z,99.99
2016-10-13T16:22:14.657Z,99.99
2016-10-13T16:23:14.629Z,99.99
2016-10-13T16:24:14.607Z,99.99
2016-10-13T16:25:14.611Z,99.99
2016-10-13T16:26:14.589Z,99.99
2016-10-13T16:27:14.581Z,99.99
2016-10-13T16:28:14.550Z,99.99
2016-10-13T16:29:14.543Z,99.99
2016-10-13T16:30:14.532Z,99.99
2016-10-13T16:31:14.510Z,99.99
2016-10-13T16:32:14.502Z,99.99
2016-10-13T16:33:14.478Z,99.99
2016-10-13T16:34:14.664Z,99.99
2016-10-13T16:35:14.639Z,99.99
2016-10-13T16:36:14.439Z,99.99
2016-10-13T16:37:14.405Z,99.99
2016-10-13T16:38:14.389Z,99.99
2016-10-13T16:39:14.394Z,99.99
2016-10-13T16:40:14.396Z,99.99
2016-10-13T16:41:14.363Z,99.99
2016-10-13T16:42:14.346Z,99.99
2016-10-13T16:43:14.318Z,99.99
2016-10-13T16:44:14.308Z,99.99
2016-10-13T16:45:14.302Z,99.99
2016-10-13T16:46:14.263Z,99.99
2016-10-13T16:47:14.271Z,99.99
2016-10-13T16:48:14.255Z,99.99
2016-10-13T16:49:14.232Z,99.99
2016-10-13T16:50:14.225Z,99.99
2016-10-13T16:51:14.194Z,99.99
2016-10-13T16:52:14.189Z,99.99
2016-10-13T16:53:14.165Z,99.99
2016-10-13T16:54:14.164Z,99.99
2016-10-13T16:55:14.134Z,99.99
2016-10-13T16:56:14.114Z,99.99
2016-10-13T16:57:14.112Z,99.99
2016-10-13T16:58:14.091Z,99.99
2016-10-13T16:59:14.082Z,99.99
2016-10-13T17:00:14.072Z,99.99
2016-10-13T17:01:14.107Z,99.99
2016-10-13T17:02:14.042Z,99.99
2016-10-13T17:03:14.010Z,99.99
2016-10-13T17:04:14.197Z,99.99
2016-10-13T17:05:13.996Z,99.99
2016-10-13T17:06:13.972Z,99.99
2016-10-13T17:07:13.945Z,99.99
2016-10-13T17:08:14.229Z,99.99
2016-10-13T17:09:13.913Z,99.99
2016-10-13T17:10:13.911Z,99.99
2016-10-13T17:11:13.888Z,99.99
2016-10-13T17:12:13.867Z,99.99
2016-10-13T17:13:13.857Z,99.99
2016-10-13T17:14:13.857Z,99.99
2016-10-13T17:15:13.821Z,99.99
2016-10-13T17:16:13.811Z,99.99
2016-10-13T17:17:13.810Z,99.99
2016-10-13T17:18:13.795Z,99.99
2016-10-13T17:19:13.757Z,99.99
2016-10-13T17:20:13.755Z,99.99
2016-10-13T17:21:13.742Z,99.99
2016-10-13T17:22:13.731Z,99.99
2016-10-13T17:23:13.698Z,99.99
2016-10-13T17:24:13.681Z,99.99
2016-10-13T17:25:13.665Z,99.99
2016-10-13T17:26:13.651Z,99.99
2016-10-13T17:27:13.648Z,99.99
2016-10-13T17:28:13.621Z,99.99
2016-10-13T17:29:13.606Z,99.99
2016-10-13T17:30:13.605Z,99.99
2016-10-13T17:31:13.597Z,99.99
2016-10-13T17:32:13.581Z,99.99
2016-10-13T17:33:13.547Z,99.99
2016-10-13T17:34:13.741Z,99.99
2016-10-13T17:35:13.517Z,99.99
2016-10-13T17:36:13.523Z,99.99
2016-10-13T17:37:13.493Z,99.99
2016-10-13T17:38:13.474Z,99.99
2016-10-13T17:39:13.471Z,99.99
2016-10-13T17:40:13.450Z,99.99
2016-10-13T17:41:13.447Z,99.99
2016-10-13T17:42:13.434Z,99.99
2016-10-13T17:43:13.398Z,99.99
2016-10-13T17:44:13.387Z,99.99
2016-10-13T17:45:13.369Z,99.99
2016-10-13T17:46:13.368Z,99.99
2016-10-13T17:47:13.360Z,99.99
2016-10-13T17:48:13.330Z,99.99
2016-10-13T17:49:13.310Z,99.99
2016-10-13T17:50:13.308Z,99.99
2016-10-13T17:51:13.293Z,99.99
2016-10-13T17:52:13.278Z,99.99
2016-10-13T17:53:13.263Z,99.99
2016-10-13T17:54:13.256Z,99.99
2016-10-13T17:55:13.233Z,99.99
2016-10-13T17:56:13.209Z,99.99
2016-10-13T17:57:13.203Z,99.99
2016-10-13T17:58:13.189Z,99.99
2016-10-13T17:59:13.173Z,99.99
2016-10-13T18:00:13.157Z,99.99
2016-10-13T18:01:13.130Z,99.99
2016-10-13T18:02:13.136Z,99.99
2016-10-13T18:03:13.119Z,99.99
2016-10-13T18:04:13.105Z,99.99
2016-10-13T18:05:13.083Z,99.99
2016-10-13T18:06:13.058Z,99.99
2016-10-13T18:07:13.045Z,99.99
2016-10-13T18:08:13.037Z,99.99
2016-10-13T18:09:13.027Z,99.99
2016-10-13T18:10:12.999Z,99.99
2016-10-13T18:11:12.976Z,99.99
2016-10-13T18:12:12.969Z,99.99
2016-10-13T18:13:12.967Z,99.99
2016-10-13T18:14:12.934Z,99.99
2016-10-13T18:15:12.937Z,99.99
2016-10-13T18:16:12.916Z,99.99
2016-10-13T18:17:12.888Z,99.99
2016-10-13T18:18:12.879Z,99.99
2016-10-13T18:19:12.864Z,99.99
2016-10-13T18:20:12.857Z,99.99
2016-10-13T18:21:12.848Z,99.99
2016-10-13T18:22:12.813Z,99.99
2016-10-13T18:23:12.817Z,99.99
2016-10-13T18:24:12.805Z,99.99
2016-10-13T18:25:12.782Z,99.99
2016-10-13T18:26:12.761Z,99.99
2016-10-13T18:27:12.745Z,99.99
2016-10-13T18:28:12.723Z,99.99
2016-10-13T18:29:12.730Z,99.99
2016-10-13T18:30:12.693Z,99.99
2016-10-13T18:31:12.678Z,99.99
2016-10-13T18:32:12.679Z,99.99
2016-10-13T18:33:12.669Z,99.99
2016-10-13T18:34:12.633Z,99.99
2016-10-13T18:35:12.618Z,99.99
2016-10-13T18:36:12.610Z,99.99
2016-10-13T18:37:12.605Z,99.99
2016-10-13T18:38:12.602Z,99.99
2016-10-13T18:39:12.580Z,99.99
2016-10-13T18:40:12.558Z,99.99
2016-10-13T18:41:12.536Z,99.99
2016-10-13T18:42:12.517Z,99.99
2016-10-13T18:43:12.501Z,99.99
2016-10-13T18:44:12.485Z,99.99
2016-10-13T18:45:12.477Z,99.99
2016-10-13T18:46:12.475Z,99.99
2016-10-13T18:47:12.454Z,99.99
2016-10-13T18:48:12.446Z,99.99
2016-10-13T18:49:12.430Z,99.99
2016-10-13T18:50:12.415Z,99.99
2016-10-13T18:51:12.378Z,99.99
2016-10-13T18:52:12.373Z,99.99
2016-10-13T18:53:12.372Z,99.99
2016-10-13T18:54:12.342Z,99.99
2016-10-13T18:55:12.321Z,99.99
2016-10-13T18:56:12.305Z,99.99
2016-10-13T18:57:12.297Z,99.99
2016-10-13T18:58:12.278Z,99.99
2016-10-13T18:59:12.269Z,99.99
2016-10-13T19:00:12.261Z,99.99
2016-10-13T19:01:12.232Z,99.99
2016-10-13T19:02:12.217Z,99.99
2016-10-13T19:03:12.208Z,99.99
2016-10-13T19:04:12.201Z,99.99
2016-10-13T19:05:12.171Z,99.99
2016-10-13T19:06:12.163Z,99.99
2016-10-13T19:07:12.143Z,99.99
2016-10-13T19:08:12.140Z,99.99
2016-10-13T19:09:12.141Z,99.99
2016-10-13T19:10:12.113Z,99.99
2016-10-13T19:11:12.104Z,99.99
2016-10-13T19:12:12.092Z,99.99
2016-10-13T19:13:12.088Z,99.99
2016-10-13T19:14:12.068Z,99.99
2016-10-13T19:15:12.057Z,99.99
2016-10-13T19:16:12.029Z,99.99
2016-10-13T19:17:12.005Z,99.99
2016-10-13T19:18:12.007Z,99.99
2016-10-13T19:19:11.993Z,99.99
2016-10-13T19:20:11.977Z,99.99
2016-10-13T19:21:11.932Z,99.99
2016-10-13T19:22:11.920Z,99.99
2016-10-13T19:23:11.945Z,99.99
2016-10-13T19:24:11.922Z,99.99
2016-10-13T19:25:11.895Z,99.99
2016-10-13T19:26:11.879Z,99.99
2016-10-13T19:27:11.843Z,99.99
2016-10-13T19:28:11.875Z,99.99
2016-10-13T19:29:11.864Z,99.99
2016-10-13T19:30:11.796Z,99.99
2016-10-13T19:31:11.790Z,99.99
2016-10-13T19:32:11.768Z,99.99
2016-10-13T19:33:11.772Z,99.99
2016-10-13T19:34:12.092Z,99.99
2016-10-13T19:35:11.750Z,99.99
2016-10-13T19:36:11.729Z,99.99
2016-10-13T19:37:11.705Z,99.99
2016-10-13T19:38:11.703Z,99.99
2016-10-13T19:39:11.687Z,99.99
2016-10-13T19:40:11.669Z,99.99
2016-10-13T19:41:11.644Z,99.99
2016-10-13T19:42:11.632Z,99.99
2016-10-13T19:43:11.616Z,99.99
2016-10-13T19:44:11.607Z,99.99
2016-10-13T19:45:11.577Z,99.99
2016-10-13T19:46:11.583Z,99.99
2016-10-13T19:47:11.542Z,99.99
2016-10-13T19:48:11.553Z,99.99
2016-10-13T19:49:11.525Z,99.99
2016-10-13T19:50:11.519Z,99.99
2016-10-13T19:51:11.504Z,99.99
2016-10-13T19:52:11.488Z,99.99
2016-10-13T19:53:11.452Z,99.99
2016-10-13T19:54:11.445Z,99.99
2016-10-13T19:55:11.731Z,99.99
2016-10-13T19:56:11.413Z,99.99
2016-10-13T19:57:11.415Z,99.99
2016-10-13T19:58:11.392Z,99.99
2016-10-13T19:59:11.372Z,99.99
2016-10-13T20:00:11.350Z,99.99
2016-10-13T20:01:11.356Z,99.99
2016-10-13T20:02:11.344Z,99.99
2016-10-13T20:03:11.312Z,99.99
2016-10-13T20:04:11.300Z,99.99
2016-10-13T20:05:11.276Z,99.99
2016-10-13T20:06:11.264Z,99.99
2016-10-13T20:07:11.248Z,99.99
2016-10-13T20:08:11.233Z,99.99
2016-10-13T20:09:11.232Z,99.99
2016-10-13T20:10:11.223Z,99.99
2016-10-13T20:11:11.198Z,99.99
2016-10-13T20:12:11.195Z,99.99
2016-10-13T20:13:11.159Z,99.99
2016-10-13T20:14:11.152Z,99.99